createdAt,value
2022-11-16T00:00:31.072Z,12.10
2022-11-16T00:01:34.382Z,12.00
2022-11-16T00:02:36.276Z,12.00
2022-11-16T00:03:38.317Z,12.10
2022-11-16T00:04:40.349Z,12.00
2022-11-16T00:05:42.048Z,12.10
2022-11-16T00:06:43.956Z,12.00
2022-11-16T00:07:45.935Z,12.00
2022-11-16T00:09:10.068Z,12.10
2022-11-16T00:10:12.663Z,12.10
2022-11-16T00:11:20.525Z,12.00
2022-11-16T00:12:23.767Z,12.10
2022-11-16T00:13:25.544Z,12.00
2022-11-16T00:14:30.071Z,12.10
2022-11-16T00:15:31.800Z,12.10
2022-11-16T00:16:34.180Z,12.10
2022-11-16T00:17:35.980Z,12.00
2022-11-16T00:18:37.705Z,12.00
2022-11-16T00:19:39.502Z,12.00
2022-11-16T00:20:41.218Z,12.10
2022-11-16T00:21:43.145Z,12.10
2022-11-16T00:22:44.870Z,12.10
2022-11-16T00:23:46.608Z,12.10
2022-11-16T00:24:48.613Z,12.10
2022-11-16T00:25:50.377Z,12.10
2022-11-16T00:26:54.749Z,12.10
2022-11-16T00:27:56.512Z,12.10
2022-11-16T00:28:58.498Z,12.10
2022-11-16T00:30:00.236Z,12.10
2022-11-16T00:31:05.507Z,12.10
2022-11-16T00:32:07.516Z,12.10
2022-11-16T00:33:13.842Z,12.10
2022-11-16T00:34:16.405Z,12.10
2022-11-16T00:35:19.407Z,12.10
2022-11-16T00:36:21.829Z,12.10
2022-11-16T00:37:23.697Z,12.10
2022-11-16T00:38:25.750Z,12.10
2022-11-16T00:39:27.599Z,12.10
2022-11-16T00:40:29.322Z,12.10
2022-11-16T00:41:31.170Z,12.10
2022-11-16T00:42:33.151Z,12.10
2022-11-16T00:43:37.767Z,12.10
2022-11-16T00:44:39.902Z,12.10
2022-11-16T00:45:43.015Z,12.10
2022-11-16T00:46:45.106Z,12.10
2022-11-16T00:47:47.512Z,12.20
2022-11-16T00:48:49.509Z,12.20
2022-11-16T00:49:51.295Z,12.20
2022-11-16T00:50:55.049Z,12.20
2022-11-16T00:51:57.480Z,12.20
2022-11-16T00:52:59.316Z,12.20
2022-11-16T00:54:02.390Z,12.20
2022-11-16T00:55:05.359Z,12.20
2022-11-16T00:56:07.821Z,12.20
2022-11-16T00:57:16.231Z,12.20
2022-11-16T00:58:19.308Z,12.20
2022-11-16T00:59:26.189Z,12.20
2022-11-16T01:00:31.953Z,12.20
2022-11-16T01:01:34.572Z,12.20
2022-11-16T01:02:37.047Z,12.20
2022-11-16T01:03:41.892Z,12.20
2022-11-16T01:04:45.266Z,12.20
2022-11-16T01:05:47.338Z,12.20
2022-11-16T01:06:49.654Z,12.20
2022-11-16T01:07:53.358Z,12.20
2022-11-16T01:08:55.341Z,12.20
2022-11-16T01:09:58.722Z,12.20
2022-11-16T01:11:21.608Z,12.20
2022-11-16T01:12:24.787Z,12.20
2022-11-16T01:13:27.183Z,12.20
2022-11-16T01:14:28.926Z,12.20
2022-11-16T01:15:30.703Z,12.20
2022-11-16T01:16:35.248Z,12.20
2022-11-16T01:17:40.618Z,12.20
2022-11-16T01:18:43.848Z,12.30
2022-11-16T01:19:45.626Z,12.20
2022-11-16T01:20:47.522Z,12.30
2022-11-16T01:21:49.628Z,12.30
2022-11-16T01:22:51.725Z,12.30
2022-11-16T01:23:56.060Z,12.30
2022-11-16T01:24:58.064Z,12.30
2022-11-16T01:26:03.284Z,12.30
2022-11-16T01:27:08.512Z,12.30
2022-11-16T01:28:12.798Z,12.30
2022-11-16T01:29:25.296Z,12.30
2022-11-16T01:30:31.410Z,12.30
2022-11-16T01:31:44.708Z,12.30
2022-11-16T01:32:46.590Z,12.30
2022-11-16T01:33:48.608Z,12.30
2022-11-16T01:35:02.638Z,12.30
2022-11-16T01:36:17.486Z,12.30
2022-11-16T01:37:19.554Z,12.30
2022-11-16T01:38:25.932Z,12.30
2022-11-16T01:39:30.301Z,12.30
2022-11-16T01:40:37.107Z,12.30
2022-11-16T01:41:39.688Z,12.30
2022-11-16T01:42:42.146Z,12.30
2022-11-16T01:43:58.122Z,12.30
2022-11-16T01:45:08.762Z,12.30
2022-11-16T01:46:12.890Z,12.30
2022-11-16T01:47:17.188Z,12.30
2022-11-16T01:48:25.447Z,12.30
2022-11-16T01:49:30.564Z,12.30
2022-11-16T01:50:34.404Z,12.30
2022-11-16T01:51:38.643Z,12.30
2022-11-16T01:52:51.452Z,12.30
2022-11-16T01:53:57.321Z,12.40
2022-11-16T01:55:00.441Z,12.40
2022-11-16T01:56:08.620Z,12.30
2022-11-16T01:57:40.794Z,12.40
2022-11-16T01:58:45.405Z,12.30
2022-11-16T01:59:55.948Z,12.30
2022-11-16T02:01:00.063Z,12.30
2022-11-16T02:02:09.576Z,12.30
2022-11-16T02:03:13.703Z,12.30
2022-11-16T02:04:21.356Z,12.40
2022-11-16T02:05:40.936Z,12.40
2022-11-16T02:07:16.101Z,12.40
2022-11-16T02:09:18.960Z,12.40
2022-11-16T02:10:44.770Z,12.30
2022-11-16T02:12:25.106Z,12.30
2022-11-16T02:13:37.619Z,12.30
2022-11-16T02:14:51.411Z,12.30
2022-11-16T02:16:20.447Z,12.30
2022-11-16T02:17:37.075Z,12.30
2022-11-16T02:19:11.645Z,12.30
2022-11-16T02:20:35.032Z,12.30
2022-11-16T02:22:07.015Z,12.30
2022-11-16T02:23:34.852Z,12.30
2022-11-16T02:25:04.416Z,12.30
2022-11-16T02:26:37.560Z,12.30
2022-11-16T02:28:04.498Z,12.30
2022-11-16T02:29:18.543Z,12.30
2022-11-16T02:30:21.396Z,12.30
2022-11-16T02:31:32.301Z,12.30
2022-11-16T02:33:03.671Z,12.30
2022-11-16T02:34:09.462Z,12.30
2022-11-16T02:35:32.224Z,12.30
2022-11-16T02:36:41.579Z,12.40
2022-11-16T02:37:49.379Z,12.30
2022-11-16T02:39:03.683Z,12.30
2022-11-16T02:40:10.355Z,12.30
2022-11-16T02:41:17.936Z,12.30
2022-11-16T02:42:35.864Z,12.40
2022-11-16T02:43:45.856Z,12.30
2022-11-16T02:44:51.359Z,12.40
2022-11-16T02:45:58.714Z,12.30
2022-11-16T02:47:09.338Z,12.30
2022-11-16T02:48:16.760Z,12.30
2022-11-16T02:49:19.974Z,12.40
2022-11-16T02:50:23.839Z,12.40
2022-11-16T02:51:30.233Z,12.40
2022-11-16T02:52:36.920Z,12.40
2022-11-16T02:54:12.768Z,12.40
2022-11-16T02:55:19.619Z,12.40
2022-11-16T02:56:22.048Z,12.40
2022-11-16T02:57:39.890Z,12.40
2022-11-16T02:58:46.013Z,12.40
2022-11-16T02:59:53.608Z,12.40
2022-11-16T03:01:03.284Z,12.40
2022-11-16T03:02:27.372Z,12.40
2022-11-16T03:03:42.838Z,12.40
2022-11-16T03:04:49.878Z,12.40
2022-11-16T03:05:56.187Z,12.40
2022-11-16T03:07:03.702Z,12.40
2022-11-16T03:08:30.270Z,12.40
2022-11-16T03:09:38.254Z,12.40
2022-11-16T03:11:00.629Z,12.40
2022-11-16T03:12:08.531Z,12.40
2022-11-16T03:13:12.442Z,12.40
2022-11-16T03:14:20.417Z,12.40
2022-11-16T03:15:25.329Z,12.40
2022-11-16T03:16:38.794Z,12.40
2022-11-16T03:17:44.772Z,12.40
2022-11-16T03:18:49.107Z,12.40
2022-11-16T03:20:12.763Z,12.40
2022-11-16T03:21:40.599Z,12.40
2022-11-16T03:22:52.454Z,12.40
2022-11-16T03:23:54.517Z,12.40
2022-11-16T03:24:56.600Z,12.40
2022-11-16T03:26:00.294Z,12.40
2022-11-16T03:27:11.301Z,12.40
2022-11-16T03:28:32.760Z,12.40
2022-11-16T03:29:42.498Z,12.40
2022-11-16T03:31:20.684Z,12.30
2022-11-16T03:32:36.001Z,12.30
2022-11-16T03:33:50.534Z,12.30
2022-11-16T03:35:29.019Z,12.30
2022-11-16T03:36:40.607Z,12.30
2022-11-16T03:37:45.883Z,12.30
2022-11-16T03:38:50.933Z,12.30
2022-11-16T03:39:54.039Z,12.20
2022-11-16T03:41:01.796Z,12.20
2022-11-16T03:42:13.833Z,12.20
2022-11-16T03:43:21.483Z,12.20
2022-11-16T03:44:26.506Z,12.20
2022-11-16T03:45:30.984Z,12.20
2022-11-16T03:46:34.388Z,12.20
2022-11-16T03:47:36.193Z,12.20
2022-11-16T03:48:44.012Z,12.20
2022-11-16T03:49:53.839Z,12.20
2022-11-16T03:50:58.580Z,12.20
2022-11-16T03:52:03.588Z,12.20
2022-11-16T03:53:06.921Z,12.20
2022-11-16T03:54:10.337Z,12.20
2022-11-16T03:55:14.923Z,12.20
2022-11-16T03:56:18.490Z,12.10
2022-11-16T03:57:21.663Z,12.10
2022-11-16T03:58:29.553Z,12.10
2022-11-16T03:59:33.699Z,12.10
2022-11-16T04:00:35.511Z,12.10
2022-11-16T04:01:44.881Z,12.10
2022-11-16T04:02:48.124Z,12.10
2022-11-16T04:03:54.381Z,12.00
2022-11-16T04:05:15.152Z,12.00
2022-11-16T04:06:36.800Z,12.00
2022-11-16T04:07:58.471Z,12.00
2022-11-16T04:09:30.580Z,12.00
2022-11-16T04:10:51.628Z,11.90
2022-11-16T04:12:13.361Z,12.00
2022-11-16T04:13:35.113Z,11.90
2022-11-16T04:14:57.963Z,11.80
2022-11-16T04:16:22.708Z,11.80
2022-11-16T04:17:44.281Z,11.80
2022-11-16T04:19:06.007Z,11.80
2022-11-16T04:20:30.617Z,11.80
2022-11-16T04:21:58.127Z,11.80
2022-11-16T04:23:31.409Z,11.70
2022-11-16T04:24:38.636Z,11.70
2022-11-16T04:25:43.251Z,11.70
2022-11-16T04:27:15.543Z,11.70
2022-11-16T04:28:22.528Z,11.70
2022-11-16T04:29:31.288Z,11.70
2022-11-16T04:30:53.400Z,11.70
2022-11-16T04:32:15.349Z,11.70
2022-11-16T04:33:36.755Z,11.60
2022-11-16T04:34:58.629Z,11.70
2022-11-16T04:36:20.728Z,11.60
2022-11-16T04:37:42.054Z,11.60
2022-11-16T04:38:44.139Z,11.60
2022-11-16T04:39:48.513Z,11.60
2022-11-16T04:40:50.585Z,11.60
2022-11-16T04:42:11.044Z,11.60
2022-11-16T04:43:12.866Z,11.60
2022-11-16T04:44:17.787Z,11.60
2022-11-16T04:45:39.806Z,11.60
2022-11-16T04:47:01.066Z,11.50
2022-11-16T04:48:03.448Z,11.50
2022-11-16T04:49:08.232Z,11.50
2022-11-16T04:50:11.215Z,11.50
2022-11-16T04:51:17.788Z,11.50
2022-11-16T04:52:19.956Z,11.50
2022-11-16T04:53:27.009Z,11.50
2022-11-16T04:54:40.205Z,11.50
2022-11-16T04:55:42.772Z,11.50
2022-11-16T04:56:44.711Z,11.50
2022-11-16T04:57:47.699Z,11.50
2022-11-16T04:58:49.794Z,11.50
2022-11-16T04:59:51.535Z,11.50
2022-11-16T05:00:53.349Z,11.50
2022-11-16T05:02:08.310Z,11.50
2022-11-16T05:03:15.238Z,11.50
2022-11-16T05:04:18.124Z,11.40
2022-11-16T05:05:20.777Z,11.40
2022-11-16T05:06:23.944Z,11.40
2022-11-16T05:07:26.408Z,11.40
2022-11-16T05:08:36.080Z,11.30
2022-11-16T05:09:47.078Z,11.30
2022-11-16T05:10:51.472Z,11.30
2022-11-16T05:11:53.849Z,11.30
2022-11-16T05:12:55.607Z,11.30
2022-11-16T05:13:58.533Z,11.30
2022-11-16T05:15:01.074Z,11.30
2022-11-16T05:16:06.336Z,11.30
2022-11-16T05:17:10.197Z,11.20
2022-11-16T05:18:12.212Z,11.20
2022-11-16T05:19:32.855Z,11.20
2022-11-16T05:20:55.045Z,11.20
2022-11-16T05:21:57.182Z,11.10
2022-11-16T05:23:00.198Z,11.10
2022-11-16T05:24:27.238Z,11.00
2022-11-16T05:25:36.143Z,11.00
2022-11-16T05:26:42.108Z,11.00
2022-11-16T05:27:43.973Z,11.00
2022-11-16T05:28:49.376Z,11.00
2022-11-16T05:29:51.989Z,11.00
2022-11-16T05:30:58.357Z,11.00
2022-11-16T05:32:04.526Z,11.00
2022-11-16T05:33:07.071Z,11.00
2022-11-16T05:34:14.334Z,11.00
2022-11-16T05:35:16.565Z,11.00
2022-11-16T05:36:18.384Z,11.00
2022-11-16T05:37:21.344Z,11.00
2022-11-16T05:38:23.162Z,11.00
2022-11-16T05:39:28.912Z,11.00
2022-11-16T05:40:32.890Z,11.00
2022-11-16T05:41:35.530Z,11.00
2022-11-16T05:42:37.944Z,11.10
2022-11-16T05:43:39.787Z,11.10
2022-11-16T05:44:47.980Z,11.10
2022-11-16T05:45:51.204Z,11.10
2022-11-16T05:46:55.150Z,11.20
2022-11-16T05:47:57.975Z,11.20
2022-11-16T05:48:59.901Z,11.20
2022-11-16T05:50:01.888Z,11.20
2022-11-16T05:51:08.252Z,11.20
2022-11-16T05:52:10.157Z,11.20
2022-11-16T05:53:12.559Z,11.30
2022-11-16T05:54:19.554Z,11.20
2022-11-16T05:55:21.287Z,11.30
2022-11-16T05:56:23.539Z,11.20
2022-11-16T05:57:27.891Z,11.20
2022-11-16T05:58:29.963Z,11.20
2022-11-16T05:59:32.718Z,11.20
2022-11-16T06:00:37.302Z,11.20
2022-11-16T06:01:39.500Z,11.20
2022-11-16T06:02:41.602Z,11.20
2022-11-16T06:03:51.498Z,11.20
2022-11-16T06:04:53.591Z,11.20
2022-11-16T06:05:56.886Z,11.20
2022-11-16T06:07:00.774Z,11.20
2022-11-16T06:08:06.689Z,11.20
2022-11-16T06:09:10.574Z,11.30
2022-11-16T06:10:12.926Z,11.30
2022-11-16T06:11:16.966Z,11.20
2022-11-16T06:12:19.786Z,11.20
2022-11-16T06:13:24.304Z,11.30
2022-11-16T06:14:30.438Z,11.20
2022-11-16T06:15:38.135Z,11.20
2022-11-16T06:16:40.049Z,11.20
2022-11-16T06:17:45.839Z,11.20
2022-11-16T06:18:48.573Z,11.20
2022-11-16T06:19:51.226Z,11.20
2022-11-16T06:20:53.237Z,11.20
2022-11-16T06:21:55.867Z,11.20
2022-11-16T06:22:59.705Z,11.20
2022-11-16T06:24:05.749Z,11.10
2022-11-16T06:25:07.912Z,11.20
2022-11-16T06:26:13.924Z,11.10
2022-11-16T06:27:16.036Z,11.10
2022-11-16T06:28:19.599Z,11.10
2022-11-16T06:29:22.875Z,11.10
2022-11-16T06:30:28.469Z,11.10
2022-11-16T06:31:31.178Z,11.10
2022-11-16T06:32:36.915Z,11.10
2022-11-16T06:33:40.156Z,11.10
2022-11-16T06:34:50.112Z,11.10
2022-11-16T06:35:52.786Z,11.00
2022-11-16T06:36:57.716Z,11.00
2022-11-16T06:38:02.420Z,11.00
2022-11-16T06:39:04.522Z,10.90
2022-11-16T06:40:10.744Z,10.90
2022-11-16T06:41:16.427Z,10.90
2022-11-16T06:42:23.749Z,10.90
2022-11-16T06:43:26.590Z,10.90
2022-11-16T06:44:30.178Z,10.90
2022-11-16T06:45:36.177Z,10.80
2022-11-16T06:46:39.424Z,10.80
2022-11-16T06:47:41.314Z,10.80
2022-11-16T06:48:43.310Z,10.80
2022-11-16T06:49:47.979Z,10.80
2022-11-16T06:50:56.315Z,10.80
2022-11-16T06:51:58.741Z,10.80
2022-11-16T06:53:01.998Z,10.80
2022-11-16T06:54:06.398Z,10.80
2022-11-16T06:55:09.689Z,10.80
2022-11-16T06:56:14.911Z,10.70
2022-11-16T06:57:21.863Z,10.80
2022-11-16T06:58:23.629Z,10.70
2022-11-16T06:59:25.392Z,10.70
2022-11-16T07:00:27.973Z,10.60
2022-11-16T07:01:30.914Z,10.60
2022-11-16T07:02:40.826Z,10.60
2022-11-16T07:03:48.524Z,10.50
2022-11-16T07:05:02.139Z,10.40
2022-11-16T07:06:08.430Z,10.40
2022-11-16T07:07:10.645Z,10.40
2022-11-16T07:08:13.915Z,10.40
2022-11-16T07:09:17.031Z,10.30
2022-11-16T07:10:19.043Z,10.30
2022-11-16T07:11:21.209Z,10.30
2022-11-16T07:12:24.390Z,10.30
2022-11-16T07:13:26.546Z,10.20
2022-11-16T07:14:28.651Z,10.20
2022-11-16T07:15:32.458Z,10.20
2022-11-16T07:16:35.778Z,10.20
2022-11-16T07:17:39.975Z,10.10
2022-11-16T07:18:42.168Z,10.10
2022-11-16T07:19:43.932Z,10.10
2022-11-16T07:20:45.737Z,10.10
2022-11-16T07:21:48.202Z,10.00
2022-11-16T07:22:53.926Z,10.00
2022-11-16T07:23:55.924Z,10.00
2022-11-16T07:24:59.379Z,10.00
2022-11-16T07:26:02.282Z,9.90
2022-11-16T07:27:13.895Z,9.90
2022-11-16T07:28:20.659Z,9.90
2022-11-16T07:29:22.727Z,9.90
2022-11-16T07:30:47.043Z,9.90
2022-11-16T07:31:55.296Z,9.80
2022-11-16T07:33:23.010Z,9.80
2022-11-16T07:34:45.086Z,9.80
2022-11-16T07:35:50.212Z,9.80
2022-11-16T07:36:53.449Z,9.80
2022-11-16T07:37:55.282Z,9.80
2022-11-16T07:38:57.310Z,9.80
2022-11-16T07:39:59.525Z,9.80
2022-11-16T07:41:02.877Z,9.80
2022-11-16T07:42:11.496Z,9.80
2022-11-16T07:43:37.153Z,9.80
2022-11-16T07:44:45.379Z,9.80
2022-11-16T07:45:47.223Z,9.80
2022-11-16T07:46:50.369Z,9.80
2022-11-16T07:47:53.446Z,9.80
2022-11-16T07:49:19.122Z,9.80
2022-11-16T07:50:26.187Z,9.80
2022-11-16T07:51:28.478Z,9.80
2022-11-16T07:52:51.509Z,9.80
2022-11-16T07:53:57.203Z,9.80
2022-11-16T07:54:59.058Z,9.80
2022-11-16T07:56:03.678Z,9.80
2022-11-16T07:57:08.226Z,9.90
2022-11-16T07:58:10.189Z,9.90
2022-11-16T07:59:13.449Z,9.90
2022-11-16T08:00:18.714Z,9.90
2022-11-16T08:01:27.130Z,9.90
2022-11-16T08:02:29.430Z,9.90
2022-11-16T08:03:32.066Z,9.90
2022-11-16T08:04:33.945Z,9.90
2022-11-16T08:05:35.694Z,9.90
2022-11-16T08:06:37.443Z,9.90
2022-11-16T08:07:39.243Z,9.90
2022-11-16T08:08:41.199Z,9.90
2022-11-16T08:09:43.536Z,9.90
2022-11-16T08:10:48.339Z,10.00
2022-11-16T08:11:51.313Z,9.90
2022-11-16T08:12:54.739Z,10.00
2022-11-16T08:13:58.258Z,10.00
2022-11-16T08:15:00.170Z,9.90
2022-11-16T08:16:03.558Z,10.00
2022-11-16T08:17:08.343Z,10.00
2022-11-16T08:18:11.058Z,9.90
2022-11-16T08:19:13.001Z,9.90
2022-11-16T08:20:15.666Z,9.90
2022-11-16T08:21:20.470Z,9.90
2022-11-16T08:22:22.852Z,9.90
2022-11-16T08:23:25.480Z,9.90
2022-11-16T08:24:28.041Z,9.90
2022-11-16T08:25:30.266Z,9.90
2022-11-16T08:26:32.372Z,9.90
2022-11-16T08:27:39.734Z,9.90
2022-11-16T08:28:44.442Z,9.90
2022-11-16T08:29:56.285Z,9.90
2022-11-16T08:31:07.767Z,9.90
2022-11-16T08:32:09.535Z,9.90
2022-11-16T08:33:12.758Z,9.90
2022-11-16T08:34:15.960Z,9.90
2022-11-16T08:35:21.673Z,9.90
2022-11-16T08:36:23.725Z,9.90
2022-11-16T08:37:26.063Z,9.90
2022-11-16T08:38:28.106Z,9.90
2022-11-16T08:39:29.982Z,10.00
2022-11-16T08:40:33.478Z,9.90
2022-11-16T08:41:37.925Z,9.90
2022-11-16T08:42:43.863Z,10.00
2022-11-16T08:43:47.682Z,10.00
2022-11-16T08:44:50.276Z,10.00
2022-11-16T08:45:54.430Z,10.00
2022-11-16T08:46:56.287Z,10.00
2022-11-16T08:48:08.474Z,10.00
2022-11-16T08:49:11.175Z,10.10
2022-11-16T08:50:12.933Z,10.10
2022-11-16T08:51:19.664Z,10.10
2022-11-16T08:52:26.967Z,10.20
2022-11-16T08:53:30.516Z,10.20
2022-11-16T08:54:34.485Z,10.20
2022-11-16T08:55:36.681Z,10.30
2022-11-16T08:56:42.937Z,10.30
2022-11-16T08:57:47.134Z,10.30
2022-11-16T08:58:58.147Z,10.30
2022-11-16T09:00:00.916Z,10.40
2022-11-16T09:01:14.005Z,10.40
2022-11-16T09:02:16.043Z,10.50
2022-11-16T09:03:17.815Z,10.50
2022-11-16T09:04:19.610Z,10.50
2022-11-16T09:05:21.328Z,10.60
2022-11-16T09:06:26.100Z,10.60
2022-11-16T09:07:28.026Z,10.60
2022-11-16T09:08:29.958Z,10.60
2022-11-16T09:09:32.562Z,10.60
2022-11-16T09:10:35.732Z,10.60
2022-11-16T09:11:38.003Z,10.70
2022-11-16T09:12:42.436Z,10.70
2022-11-16T09:13:46.530Z,10.70
2022-11-16T09:14:48.429Z,10.70
2022-11-16T09:15:59.547Z,10.70
2022-11-16T09:17:02.490Z,10.70
2022-11-16T09:18:05.047Z,10.70
2022-11-16T09:19:07.170Z,10.70
2022-11-16T09:20:09.224Z,10.70
2022-11-16T09:21:11.021Z,10.80
2022-11-16T09:22:12.861Z,10.80
2022-11-16T09:23:15.015Z,10.80
2022-11-16T09:24:17.563Z,10.80
2022-11-16T09:25:19.326Z,10.90
2022-11-16T09:26:23.387Z,10.90
2022-11-16T09:27:25.971Z,10.90
2022-11-16T09:28:27.966Z,10.90
2022-11-16T09:29:29.837Z,10.90
2022-11-16T09:30:31.608Z,11.00
2022-11-16T09:31:37.427Z,11.00
2022-11-16T09:32:39.148Z,11.00
2022-11-16T09:33:40.915Z,11.00
2022-11-16T09:34:42.738Z,11.00
2022-11-16T09:35:44.824Z,11.00
2022-11-16T09:36:46.513Z,11.10
2022-11-16T09:37:48.246Z,11.10
2022-11-16T09:40:12.607Z,11.20
2022-11-16T09:41:17.068Z,11.20
2022-11-16T09:42:30.907Z,11.20
2022-11-16T09:43:53.641Z,11.20
2022-11-16T09:45:04.756Z,11.30
2022-11-16T09:46:31.611Z,11.30
2022-11-16T09:47:41.159Z,11.30
2022-11-16T09:48:43.362Z,11.30
2022-11-16T09:50:06.564Z,11.30
2022-11-16T09:51:13.671Z,11.30
2022-11-16T09:52:27.245Z,11.30
2022-11-16T09:53:41.699Z,11.30
2022-11-16T09:54:46.624Z,11.40
2022-11-16T09:56:06.514Z,11.40
2022-11-16T09:57:12.938Z,11.50
2022-11-16T09:58:50.082Z,11.50
2022-11-16T09:59:58.367Z,11.60
2022-11-16T10:01:28.883Z,11.60
2022-11-16T10:02:47.919Z,11.70
2022-11-16T10:03:54.032Z,11.60
2022-11-16T10:05:15.920Z,11.60
2022-11-16T10:06:23.025Z,11.60
2022-11-16T10:07:42.011Z,11.50
2022-11-16T10:08:47.395Z,11.50
2022-11-16T10:09:49.696Z,11.40
2022-11-16T10:11:02.065Z,11.40
2022-11-16T10:12:18.504Z,11.40
2022-11-16T10:13:46.247Z,11.30
2022-11-16T10:15:23.662Z,11.30
2022-11-16T10:16:49.365Z,11.50
2022-11-16T10:18:33.973Z,11.50
2022-11-16T10:19:50.907Z,11.60
2022-11-16T10:21:09.788Z,11.60
2022-11-16T10:22:48.364Z,11.60
2022-11-16T10:24:34.765Z,11.70
2022-11-16T10:25:44.782Z,11.80
2022-11-16T10:27:05.091Z,11.90
2022-11-16T10:28:37.147Z,11.90
2022-11-16T10:30:09.175Z,12.00
2022-11-16T10:31:24.905Z,11.90
2022-11-16T10:32:28.907Z,11.80
2022-11-16T10:33:36.253Z,11.80
2022-11-16T10:34:53.477Z,11.80
2022-11-16T10:35:55.952Z,11.70
2022-11-16T10:37:03.923Z,11.60
2022-11-16T10:38:17.431Z,11.60
2022-11-16T10:39:20.638Z,11.50
2022-11-16T10:40:35.819Z,11.40
2022-11-16T10:41:46.857Z,11.40
2022-11-16T10:43:00.410Z,11.30
2022-11-16T10:44:02.813Z,11.30
2022-11-16T10:45:32.169Z,11.30
2022-11-16T10:46:40.062Z,11.30
2022-11-16T10:47:53.493Z,11.20
2022-11-16T10:49:22.523Z,11.20
2022-11-16T10:50:37.413Z,11.10
2022-11-16T10:51:40.099Z,11.10
2022-11-16T10:52:42.699Z,11.10
2022-11-16T10:53:44.610Z,11.10
2022-11-16T10:54:46.503Z,11.10
2022-11-16T10:56:10.662Z,11.10
2022-11-16T10:57:15.188Z,11.10
2022-11-16T10:58:17.320Z,11.10
2022-11-16T10:59:19.971Z,11.10
2022-11-16T11:00:40.365Z,11.00
2022-11-16T11:01:44.575Z,11.10
2022-11-16T11:02:48.899Z,11.00
2022-11-16T11:03:50.855Z,11.00
2022-11-16T11:05:02.819Z,11.00
2022-11-16T11:06:04.831Z,11.00
2022-11-16T11:07:31.419Z,11.00
2022-11-16T11:08:33.577Z,11.00
2022-11-16T11:09:41.703Z,11.00
2022-11-16T11:11:23.770Z,11.00
2022-11-16T11:12:38.928Z,11.00
2022-11-16T11:13:40.746Z,11.00
2022-11-16T11:14:43.339Z,11.00
2022-11-16T11:15:45.473Z,11.00
2022-11-16T11:16:53.127Z,11.00
2022-11-16T11:18:23.399Z,11.00
2022-11-16T11:19:29.471Z,11.00
2022-11-16T11:20:32.484Z,11.00
2022-11-16T11:21:34.722Z,11.00
2022-11-16T11:22:51.589Z,11.00
2022-11-16T11:24:06.049Z,11.00
2022-11-16T11:25:20.472Z,11.00
2022-11-16T11:26:37.204Z,11.00
2022-11-16T11:27:39.636Z,11.00
2022-11-16T11:28:47.676Z,10.90
2022-11-16T11:29:54.027Z,11.00
2022-11-16T11:31:02.037Z,11.00
2022-11-16T11:32:13.294Z,11.00
2022-11-16T11:33:16.045Z,10.90
2022-11-16T11:34:30.668Z,10.90
2022-11-16T11:35:33.852Z,10.90
2022-11-16T11:36:42.018Z,10.90
2022-11-16T11:37:44.053Z,10.90
2022-11-16T11:39:01.365Z,10.90
2022-11-16T11:40:25.293Z,11.00
2022-11-16T11:41:33.533Z,11.00
2022-11-16T11:42:36.713Z,10.90
2022-11-16T11:43:38.515Z,10.90
2022-11-16T11:44:52.068Z,10.90
2022-11-16T11:46:11.958Z,11.00
2022-11-16T11:47:57.328Z,11.00
2022-11-16T11:49:08.424Z,11.10
2022-11-16T11:50:21.669Z,11.10
2022-11-16T11:51:36.098Z,11.20
2022-11-16T11:52:44.502Z,11.30
2022-11-16T11:53:52.881Z,11.30
2022-11-16T11:54:55.886Z,11.30
2022-11-16T11:55:59.692Z,11.40
2022-11-16T11:57:03.274Z,11.50
2022-11-16T11:58:07.742Z,11.50
2022-11-16T11:59:15.749Z,11.50
2022-11-16T12:00:18.419Z,11.60
2022-11-16T12:01:48.580Z,11.60
2022-11-16T12:03:09.891Z,11.60
2022-11-16T12:04:32.026Z,11.60
2022-11-16T12:06:09.816Z,11.60
2022-11-16T12:08:05.465Z,11.60
2022-11-16T12:09:44.429Z,11.60
2022-11-16T12:10:55.507Z,11.60
2022-11-16T12:12:25.727Z,11.60
2022-11-16T12:14:05.542Z,11.60
2022-11-16T12:15:10.129Z,11.60
2022-11-16T12:16:46.044Z,11.50
2022-11-16T12:18:02.929Z,11.50
2022-11-16T12:19:14.678Z,11.50
2022-11-16T12:20:41.612Z,11.50
2022-11-16T12:22:09.484Z,11.50
2022-11-16T12:23:33.255Z,11.50
2022-11-16T12:25:00.465Z,11.50
2022-11-16T12:26:29.439Z,11.60
2022-11-16T12:27:33.891Z,11.60
2022-11-16T12:28:59.972Z,11.60
2022-11-16T12:30:23.413Z,11.70
2022-11-16T12:31:52.354Z,11.70
2022-11-16T12:33:36.739Z,11.70
2022-11-16T12:35:03.415Z,11.70
2022-11-16T12:36:15.614Z,11.70
2022-11-16T12:37:20.760Z,11.60
2022-11-16T12:38:47.398Z,11.60
2022-11-16T12:40:20.382Z,11.60
2022-11-16T12:41:31.664Z,11.60
2022-11-16T12:42:53.725Z,11.60
2022-11-16T12:44:04.413Z,11.50
2022-11-16T12:45:17.710Z,11.50
2022-11-16T12:46:59.986Z,11.50
2022-11-16T12:48:29.831Z,11.50
2022-11-16T12:49:57.999Z,11.40
2022-11-16T12:51:31.614Z,11.40
2022-11-16T12:52:36.668Z,11.30
2022-11-16T12:54:07.204Z,11.30
2022-11-16T12:55:27.259Z,11.30
2022-11-16T12:56:39.177Z,11.20
2022-11-16T12:58:23.397Z,11.20
2022-11-16T12:59:50.718Z,11.20
2022-11-16T13:01:18.334Z,11.20
2022-11-16T13:02:38.883Z,11.10
2022-11-16T13:04:22.345Z,11.10
2022-11-16T13:05:42.810Z,11.10
2022-11-16T13:06:54.791Z,11.10
2022-11-16T13:08:04.536Z,11.20
2022-11-16T13:09:14.560Z,11.20
2022-11-16T13:10:28.026Z,11.20
2022-11-16T13:11:39.775Z,11.20
2022-11-16T13:12:45.472Z,11.20
2022-11-16T13:13:53.724Z,11.20
2022-11-16T13:14:57.708Z,11.20
2022-11-16T13:16:02.043Z,11.20
2022-11-16T13:17:06.304Z,11.20
2022-11-16T13:18:16.929Z,11.30
2022-11-16T13:19:19.123Z,11.20
2022-11-16T13:20:46.489Z,11.20
2022-11-16T13:22:13.479Z,11.30
2022-11-16T13:23:35.136Z,11.30
2022-11-16T13:24:47.143Z,11.20
2022-11-16T13:26:00.539Z,11.20
2022-11-16T13:27:24.276Z,11.20
2022-11-16T13:28:38.685Z,11.20
2022-11-16T13:29:48.990Z,11.20
2022-11-16T13:31:18.167Z,11.20
2022-11-16T13:32:43.058Z,11.20
2022-11-16T13:33:53.770Z,11.10
2022-11-16T13:34:57.173Z,11.10
2022-11-16T13:35:58.972Z,11.10
2022-11-16T13:37:00.842Z,11.20
2022-11-16T13:38:02.620Z,11.20
2022-11-16T13:39:06.205Z,11.30
2022-11-16T13:40:08.608Z,11.30
2022-11-16T13:41:34.103Z,11.30
2022-11-16T13:42:43.744Z,11.30
2022-11-16T13:43:49.759Z,11.30
2022-11-16T13:44:51.950Z,11.30
2022-11-16T13:46:00.023Z,11.40
2022-11-16T13:47:17.876Z,11.40
2022-11-16T13:48:30.558Z,11.40
2022-11-16T13:49:35.207Z,11.40
2022-11-16T13:50:46.657Z,11.40
2022-11-16T13:51:55.368Z,11.40
2022-11-16T13:54:17.584Z,11.50
2022-11-16T13:54:46.153Z,11.50
2022-11-16T13:56:00.634Z,11.50
2022-11-16T13:57:21.384Z,11.50
2022-11-16T13:58:24.930Z,11.50
2022-11-16T13:59:30.324Z,11.50
2022-11-16T14:00:36.397Z,11.50
2022-11-16T14:01:56.766Z,11.50
2022-11-16T14:03:16.813Z,11.60
2022-11-16T14:04:42.412Z,11.60
2022-11-16T14:05:47.543Z,11.60
2022-11-16T14:06:56.242Z,11.60
2022-11-16T14:07:58.198Z,11.60
2022-11-16T14:09:00.203Z,11.60
2022-11-16T14:10:05.653Z,11.60
2022-11-16T14:11:33.449Z,11.60
2022-11-16T14:12:38.275Z,11.60
2022-11-16T14:13:46.984Z,11.60
2022-11-16T14:15:17.482Z,11.60
2022-11-16T14:16:23.032Z,11.50
2022-11-16T14:18:00.852Z,11.50
2022-11-16T14:19:26.765Z,11.50
2022-11-16T14:20:59.186Z,11.40
2022-11-16T14:22:08.056Z,11.40
2022-11-16T14:23:46.662Z,11.40
2022-11-16T14:24:57.826Z,11.40
2022-11-16T14:26:13.755Z,11.40
2022-11-16T14:27:40.734Z,11.40
2022-11-16T14:29:02.213Z,11.50
2022-11-16T14:30:28.657Z,11.50
2022-11-16T14:31:46.142Z,11.50
2022-11-16T14:32:52.509Z,11.50
2022-11-16T14:33:58.342Z,11.50
2022-11-16T14:35:04.983Z,11.50
2022-11-16T14:36:10.220Z,11.50
2022-11-16T14:37:36.169Z,11.50
2022-11-16T14:38:49.344Z,11.50
2022-11-16T14:39:57.656Z,11.50
2022-11-16T14:41:02.384Z,11.50
2022-11-16T14:42:17.667Z,11.40
2022-11-16T14:43:29.649Z,11.40
2022-11-16T14:44:37.702Z,11.40
2022-11-16T14:45:39.622Z,11.40
2022-11-16T14:46:44.720Z,11.30
2022-11-16T14:47:48.274Z,11.30
2022-11-16T14:48:50.867Z,11.30
2022-11-16T14:49:53.998Z,11.30
2022-11-16T14:51:15.108Z,11.30
2022-11-16T14:52:22.314Z,11.20
2022-11-16T14:53:25.293Z,11.20
2022-11-16T14:54:59.653Z,11.10
2022-11-16T14:56:16.337Z,11.10
2022-11-16T14:57:21.651Z,11.10
2022-11-16T14:58:24.090Z,11.10
2022-11-16T14:59:26.747Z,11.00
2022-11-16T15:00:30.293Z,11.00
2022-11-16T15:01:36.367Z,11.00